Check out our new BloomSky Weather System.

Active alerts


No alerts


Thunder radar  blitzortung!


Rain radar more information rain snow radar


Visit our other weather sites:

Template documentation
and downloads

And another site



Weather Underground History page Text

Daily Summary for January 10, 2017 Units:  Metric    English   Both
« Previous Day
Next Day »
Daily Weekly Monthly Yearly Custom
  High: Low: Average:
Temperature: 25.7 °C 16.9 °C 20.7 °C
Dew Point: 19.3 °C 14.7 °C 17.7 °C
Humidity: 93 % 65 % 84 %
Wind Speed: 40.2 km/h 1.6 km/h 8.7 km/h
Wind Gust: 40.2 km/h - -
Wind:- - South
Pressure: 1021.2 hPa 1015.8 hPa -
Precipitation: 0 mm    
Historical Graphs
 
 
Tabular Data for January 10, 2017
Time Temperature Dew Point Pressure Wind Wind Speed Wind Gust Humidity Rainfall Rate (Hourly)
00:03 16.9 °C 14.7 °C 1021.2 hPa ESE 6.4 km/h 12.9 km/h 87 % 0 mm
00:08 16.9 °C 14.7 °C 1020.9 hPa SE 3.2 km/h 12.9 km/h 87 % 0 mm
00:13 17 °C 14.8 °C 1020.9 hPa SE 4.8 km/h 12.9 km/h 87 % 0 mm
00:18 17.1 °C 14.9 °C 1020.9 hPa SE 8 km/h 16.1 km/h 87 % 0 mm
00:23 17.1 °C 14.9 °C 1020.5 hPa South 4.8 km/h 16.1 km/h 87 % 0 mm
00:28 17.1 °C 14.9 °C 1020.5 hPa ESE 6.4 km/h 16.1 km/h 87 % 0 mm
00:33 17.1 °C 14.9 °C 1020.5 hPa SW 12.9 km/h 12.9 km/h 87 % 0 mm
00:38 17.1 °C 15.1 °C 1020.5 hPa SW 11.3 km/h 14.5 km/h 88 % 0 mm
00:43 17.2 °C 15.2 °C 1020.5 hPa SSW 6.4 km/h 14.5 km/h 88 % 0 mm
00:48 17.2 °C 15.2 °C 1020.5 hPa SE 4.8 km/h 16.1 km/h 88 % 0 mm
00:53 17.2 °C 15.2 °C 1020.5 hPa SSE 4.8 km/h 16.1 km/h 88 % 0 mm
00:58 17.3 °C 15.3 °C 1020.5 hPa SSE 4.8 km/h 16.1 km/h 88 % 0 mm
01:03 17.3 °C 15.3 °C 1020.5 hPa SSE 8 km/h 16.1 km/h 88 % 0 mm
01:08 17.4 °C 15.4 °C 1020.5 hPa SSE 9.7 km/h 17.7 km/h 88 % 0 mm
01:13 17.5 °C 15.5 °C 1020.5 hPa SE 9.7 km/h 17.7 km/h 88 % 0 mm
01:18 17.6 °C 15.6 °C 1020.5 hPa SSE 12.9 km/h 20.9 km/h 88 % 0 mm
01:23 17.6 °C 15.4 °C 1020.5 hPa SE 14.5 km/h 20.9 km/h 87 % 0 mm
01:28 17.7 °C 15.5 °C 1020.5 hPa South 4.8 km/h 20.9 km/h 87 % 0 mm
01:33 17.6 °C 15.4 °C 1020.5 hPa SSW 11.3 km/h 19.3 km/h 87 % 0 mm
01:38 17.7 °C 15.5 °C 1020.5 hPa SSW 9.7 km/h 19.3 km/h 87 % 0 mm
01:43 17.6 °C 15.6 °C 1020.5 hPa SSE 6.4 km/h 19.3 km/h 88 % 0 mm
01:48 17.6 °C 15.6 °C 1020.2 hPa South 11.3 km/h 19.3 km/h 88 % 0 mm
01:53 17.6 °C 15.6 °C 1020.2 hPa SSE 8 km/h 22.5 km/h 88 % 0 mm
01:59 17.6 °C 15.6 °C 1020.2 hPa SSE 12.9 km/h 22.5 km/h 88 % 0 mm
02:04 17.6 °C 15.6 °C 1020.2 hPa South 12.9 km/h 25.7 km/h 88 % 0 mm
02:09 17.6 °C 15.6 °C 1020.2 hPa South 6.4 km/h 25.7 km/h 88 % 0 mm
02:14 17.6 °C 15.6 °C 1019.9 hPa SSE 8 km/h 25.7 km/h 88 % 0 mm
02:19 17.5 °C 15.5 °C 1019.9 hPa SSW 9.7 km/h 20.9 km/h 88 % 0 mm
02:24 17.4 °C 15.4 °C 1019.9 hPa SSE 4.8 km/h 20.9 km/h 88 % 0 mm
02:29 17.4 °C 15.6 °C 1019.9 hPa SSE 9.7 km/h 20.9 km/h 89 % 0 mm
02:34 17.4 °C 15.6 °C 1019.9 hPa South 6.4 km/h 17.7 km/h 89 % 0 mm
02:39 17.5 °C 15.7 °C 1019.9 hPa South 6.4 km/h 17.7 km/h 89 % 0 mm
02:44 17.6 °C 15.8 °C 1019.9 hPa South 12.9 km/h 17.7 km/h 89 % 0 mm
02:49 17.6 °C 15.8 °C 1019.9 hPa SSE 6.4 km/h 16.1 km/h 89 % 0 mm
02:54 17.7 °C 15.7 °C 1019.9 hPa SSE 8 km/h 19.3 km/h 88 % 0 mm
02:59 17.6 °C 15.6 °C 1019.9 hPa SSE 6.4 km/h 19.3 km/h 88 % 0 mm
03:04 17.6 °C 15.6 °C 1019.5 hPa South 11.3 km/h 19.3 km/h 88 % 0 mm
03:09 17.5 °C 15.7 °C 1019.5 hPa South 8 km/h 14.5 km/h 89 % 0 mm
03:14 17.4 °C 15.6 °C 1019.5 hPa SSE 9.7 km/h 14.5 km/h 89 % 0 mm
03:19 17.3 °C 15.5 °C 1019.5 hPa SSE 9.7 km/h 16.1 km/h 89 % 0 mm
03:24 17.3 °C 15.5 °C 1019.2 hPa SE 6.4 km/h 17.7 km/h 89 % 0 mm
03:29 17.3 °C 15.5 °C 1019.2 hPa SSE 6.4 km/h 17.7 km/h 89 % 0 mm
03:34 17.2 °C 15.5 °C 1019.2 hPa South 8 km/h 17.7 km/h 90 % 0 mm
03:39 17.1 °C 15.4 °C 1019.2 hPa SSE 8 km/h 17.7 km/h 90 % 0 mm
03:44 17.1 °C 15.4 °C 1018.8 hPa SSE 6.4 km/h 12.9 km/h 90 % 0 mm
03:49 17 °C 15.5 °C 1018.8 hPa SSW 9.7 km/h 12.9 km/h 91 % 0 mm
03:54 17 °C 15.5 °C 1018.8 hPa SE 4.8 km/h 16.1 km/h 91 % 0 mm
03:59 16.9 °C 15.4 °C 1018.5 hPa SSE 9.7 km/h 16.1 km/h 91 % 0 mm
04:04 16.9 °C 15.4 °C 1018.5 hPa South 11.3 km/h 16.1 km/h 91 % 0 mm
04:09 16.9 °C 15.4 °C 1018.5 hPa SSE 9.7 km/h 16.1 km/h 91 % 0 mm
04:14 16.9 °C 15.4 °C 1018.2 hPa SSE 8 km/h 16.1 km/h 91 % 0 mm
04:19 17 °C 15.7 °C 1018.2 hPa SE 14.5 km/h 16.1 km/h 92 % 0 mm
04:24 17 °C 15.7 °C 1018.2 hPa South 6.4 km/h 16.1 km/h 92 % 0 mm
04:29 17 °C 15.7 °C 1017.8 hPa South 8 km/h 16.1 km/h 92 % 0 mm
04:34 17.1 °C 15.8 °C 1018.2 hPa South 14.5 km/h 16.1 km/h 92 % 0 mm
04:39 17.1 °C 15.8 °C 1018.2 hPa SSE 6.4 km/h 17.7 km/h 92 % 0 mm
04:44 17.2 °C 15.9 °C 1018.2 hPa SSE 4.8 km/h 17.7 km/h 92 % 0 mm
04:49 17.2 °C 15.9 °C 1018.2 hPa SSE 4.8 km/h 17.7 km/h 92 % 0 mm
04:54 17.2 °C 15.9 °C 1018.2 hPa South 4.8 km/h 16.1 km/h 92 % 0 mm
04:59 17.2 °C 15.9 °C 1018.2 hPa SSW 3.2 km/h 12.9 km/h 92 % 0 mm
05:04 17.2 °C 15.9 °C 1017.8 hPa SSE 4.8 km/h 12.9 km/h 92 % 0 mm
05:09 17.2 °C 15.9 °C 1017.8 hPa South 12.9 km/h 14.5 km/h 92 % 0 mm
05:14 17.2 °C 15.9 °C 1017.8 hPa ESE 8 km/h 14.5 km/h 92 % 0 mm
05:19 17.2 °C 15.9 °C 1017.8 hPa SE 8 km/h 16.1 km/h 92 % 0 mm
05:24 17.2 °C 15.9 °C 1017.8 hPa South 8 km/h 16.1 km/h 92 % 0 mm
05:29 17.2 °C 15.9 °C 1017.8 hPa SSE 3.2 km/h 16.1 km/h 92 % 0 mm
05:34 17.2 °C 15.9 °C 1017.8 hPa SE 6.4 km/h 14.5 km/h 92 % 0 mm
05:39 17.2 °C 15.9 °C 1017.8 hPa ESE 11.3 km/h 16.1 km/h 92 % 0 mm
05:44 17.3 °C 16 °C 1017.8 hPa SSE 6.4 km/h 17.7 km/h 92 % 0 mm
05:49 17.3 °C 16.2 °C 1017.8 hPa SE 6.4 km/h 17.7 km/h 93 % 0 mm
05:55 17.4 °C 16.1 °C 1017.5 hPa SSE 4.8 km/h 17.7 km/h 92 % 0 mm
06:00 17.4 °C 16.1 °C 1017.2 hPa SE 12.9 km/h 14.5 km/h 92 % 0 mm
06:05 17.4 °C 16.1 °C 1017.2 hPa South 8 km/h 16.1 km/h 92 % 0 mm
06:10 17.4 °C 16.1 °C 1016.8 hPa SSE 6.4 km/h 17.7 km/h 92 % 0 mm
06:15 17.4 °C 16.1 °C 1016.8 hPa SE 9.7 km/h 17.7 km/h 92 % 0 mm
06:20 17.4 °C 16.1 °C 1016.5 hPa SSE 8 km/h 17.7 km/h 92 % 0 mm
06:25 17.6 °C 16.5 °C 1016.5 hPa SSE 6.4 km/h 17.7 km/h 93 % 0 mm
06:30 17.6 °C 16.5 °C 1016.8 hPa SW 8 km/h 20.9 km/h 93 % 0 mm
06:35 17.7 °C 16.6 °C 1017.2 hPa South 8 km/h 20.9 km/h 93 % 0 mm
06:40 17.8 °C 16.5 °C 1017.2 hPa South 11.3 km/h 20.9 km/h 92 % 0 mm
06:45 17.8 °C 16.5 °C 1016.8 hPa ESE 11.3 km/h 20.9 km/h 92 % 0 mm
06:50 17.9 °C 16.6 °C 1016.8 hPa South 8 km/h 20.9 km/h 92 % 0 mm
06:55 17.9 °C 16.6 °C 1016.5 hPa SSE 9.7 km/h 17.7 km/h 92 % 0 mm
07:00 18.1 °C 16.8 °C 1016.5 hPa WSW 9.7 km/h 17.7 km/h 92 % 0 mm
07:05 18.2 °C 16.9 °C 1016.5 hPa SSE 14.5 km/h 20.9 km/h 92 % 0 mm
07:10 18.3 °C 17 °C 1017.2 hPa South 11.3 km/h 29 km/h 92 % 0 mm
07:15 18.4 °C 17.1 °C 1017.8 hPa SE 4.8 km/h 29 km/h 92 % 0 mm
07:20 18.4 °C 17.1 °C 1017.8 hPa SSE 4.8 km/h 20.9 km/h 92 % 0 mm
07:25 18.6 °C 17.3 °C 1018.2 hPa South 9.7 km/h 17.7 km/h 92 % 0 mm
07:30 18.7 °C 17.4 °C 1018.5 hPa SSE 1.6 km/h 17.7 km/h 92 % 0 mm
07:35 18.7 °C 17.4 °C 1018.8 hPa SSW 4.8 km/h 14.5 km/h 92 % 0 mm
07:40 18.8 °C 17.5 °C 1019.2 hPa South 3.2 km/h 12.9 km/h 92 % 0 mm
07:45 18.9 °C 17.6 °C 1018.8 hPa South 9.7 km/h 14.5 km/h 92 % 0 mm
07:50 19 °C 17.5 °C 1018.5 hPa SSW 11.3 km/h 16.1 km/h 91 % 0 mm
07:55 19.1 °C 17.6 °C 1018.5 hPa SSE 6.4 km/h 16.1 km/h 91 % 0 mm
08:00 19.1 °C 17.6 °C 1018.5 hPa SSE 4.8 km/h 16.1 km/h 91 % 0 mm
08:05 19.1 °C 17.6 °C 1018.8 hPa SSE 4.8 km/h 16.1 km/h 91 % 0 mm
08:10 19.1 °C 17.6 °C 1018.8 hPa South 4.8 km/h 11.3 km/h 91 % 0 mm
08:15 19.1 °C 17.8 °C 1018.8 hPa SSE 4.8 km/h 12.9 km/h 92 % 0 mm
08:20 19.2 °C 17.7 °C 1018.8 hPa SSE 3.2 km/h 16.1 km/h 91 % 0 mm
08:25 19.2 °C 17.7 °C 1018.5 hPa SSE 6.4 km/h 16.1 km/h 91 % 0 mm
08:30 19.3 °C 17.8 °C 1018.8 hPa SSE 3.2 km/h 16.1 km/h 91 % 0 mm
08:35 19.3 °C 17.8 °C 1018.8 hPa SSE 3.2 km/h 14.5 km/h 91 % 0 mm
08:40 19.4 °C 17.9 °C 1018.5 hPa SSW 9.7 km/h 14.5 km/h 91 % 0 mm
08:45 19.4 °C 17.9 °C 1018.5 hPa SE 4.8 km/h 14.5 km/h 91 % 0 mm
08:50 19.5 °C 18 °C 1018.8 hPa SSE 6.4 km/h 14.5 km/h 91 % 0 mm
08:55 19.6 °C 18.1 °C 1018.8 hPa SSW 11.3 km/h 14.5 km/h 91 % 0 mm
09:00 19.8 °C 18.3 °C 1018.8 hPa SSE 1.6 km/h 14.5 km/h 91 % 0 mm
09:05 19.8 °C 18.3 °C 1019.2 hPa SSW 4.8 km/h 12.9 km/h 91 % 0 mm
09:10 19.9 °C 18.2 °C 1019.2 hPa South 6.4 km/h 11.3 km/h 90 % 0 mm
09:15 19.9 °C 18.2 °C 1019.2 hPa SW 3.2 km/h 14.5 km/h 90 % 0 mm
09:20 20.1 °C 18.4 °C 1019.2 hPa SE 8 km/h 14.5 km/h 90 % 0 mm
09:25 20.2 °C 18.5 °C 1019.2 hPa SE 9.7 km/h 14.5 km/h 90 % 0 mm
09:30 20.3 °C 18.6 °C 1019.5 hPa South 4.8 km/h 12.9 km/h 90 % 0 mm
09:35 20.6 °C 18.7 °C 1019.2 hPa SE 8 km/h 16.1 km/h 89 % 0 mm
09:40 20.7 °C 18.8 °C 1019.5 hPa SSE 6.4 km/h 16.1 km/h 89 % 0 mm
09:45 20.8 °C 18.7 °C 1019.5 hPa South 4.8 km/h 16.1 km/h 88 % 0 mm
09:50 20.8 °C 18.7 °C 1019.5 hPa SSW 6.4 km/h 20.9 km/h 88 % 0 mm
09:55 20.9 °C 18.8 °C 1019.5 hPa SSE 8 km/h 20.9 km/h 88 % 0 mm
10:00 20.9 °C 18.8 °C 1019.9 hPa South 9.7 km/h 20.9 km/h 88 % 0 mm
10:05 21 °C 18.9 °C 1019.5 hPa South 4.8 km/h 20.9 km/h 88 % 0 mm
10:10 21.2 °C 18.9 °C 1019.5 hPa South 11.3 km/h 20.9 km/h 87 % 0 mm
10:15 21.3 °C 19 °C 1019.5 hPa SSE 9.7 km/h 27.4 km/h 87 % 0 mm
10:20 21.5 °C 19.1 °C 1019.5 hPa South 12.9 km/h 27.4 km/h 86 % 0 mm
10:25 21.6 °C 19.2 °C 1019.9 hPa SSE 6.4 km/h 27.4 km/h 86 % 0 mm
10:30 21.6 °C 19 °C 1019.9 hPa SW 9.7 km/h 22.5 km/h 85 % 0 mm
10:35 21.6 °C 19 °C 1019.9 hPa SSW 6.4 km/h 22.5 km/h 85 % 0 mm
10:40 21.6 °C 19 °C 1019.9 hPa SSW 12.9 km/h 22.5 km/h 85 % 0 mm
10:45 21.7 °C 19.1 °C 1019.9 hPa SSW 8 km/h 22.5 km/h 85 % 0 mm
10:50 21.9 °C 19.1 °C 1019.9 hPa South 14.5 km/h 22.5 km/h 84 % 0 mm
10:55 22.1 °C 19.3 °C 1019.9 hPa SE 11.3 km/h 20.9 km/h 84 % 0 mm
11:00 22.3 °C 19.3 °C 1019.9 hPa South 9.7 km/h 25.7 km/h 83 % 0 mm
11:05 22.4 °C 19.2 °C 1019.5 hPa SSW 11.3 km/h 25.7 km/h 82 % 0 mm
11:11 22.6 °C 19.2 °C 1019.2 hPa SSE 6.4 km/h 25.7 km/h 81 % 0 mm
11:16 22.8 °C 19.2 °C 1019.2 hPa SSE 11.3 km/h 24.1 km/h 80 % 0 mm
11:21 22.9 °C 19.1 °C 1019.2 hPa SSE 14.5 km/h 24.1 km/h 79 % 0 mm
11:26 23 °C 18.7 °C 1018.8 hPa South 22.5 km/h 29 km/h 77 % 0 mm
11:31 22.9 °C 18.7 °C 1018.8 hPa SSW 12.9 km/h 29 km/h 77 % 0 mm
11:36 23.1 °C 18.8 °C 1018.8 hPa South 19.3 km/h 29 km/h 77 % 0 mm
11:41 23.2 °C 18.9 °C 1018.5 hPa SSW 9.7 km/h 25.7 km/h 77 % 0 mm
11:46 23.4 °C 18.9 °C 1018.8 hPa SSE 14.5 km/h 25.7 km/h 76 % 0 mm
11:51 23.4 °C 19.1 °C 1018.5 hPa SSW 8 km/h 25.7 km/h 77 % 0 mm
11:56 23.6 °C 19.1 °C 1018.5 hPa South 12.9 km/h 24.1 km/h 76 % 0 mm
12:01 23.8 °C 19.3 °C 1018.2 hPa SSE 8 km/h 24.1 km/h 76 % 0 mm
12:06 23.9 °C 19.2 °C 1018.2 hPa ESE 19.3 km/h 24.1 km/h 75 % 0 mm
12:11 24.2 °C 19.3 °C 1018.2 hPa SW 6.4 km/h 24.1 km/h 74 % 0 mm
12:16 24.4 °C 19 °C 1018.2 hPa SW 12.9 km/h 24.1 km/h 72 % 0 mm
12:21 24.4 °C 18.8 °C 1017.8 hPa SSW 6.4 km/h 22.5 km/h 71 % 0 mm
12:26 24.3 °C 18.7 °C 1017.8 hPa SSW 24.1 km/h 24.1 km/h 71 % 0 mm
12:31 24.3 °C 18.9 °C 1017.8 hPa SW 9.7 km/h 27.4 km/h 72 % 0 mm
12:36 24.3 °C 18.7 °C 1017.8 hPa SW 12.9 km/h 27.4 km/h 71 % 0 mm
12:41 24.2 °C 18.6 °C 1017.8 hPa SSE 12.9 km/h 27.4 km/h 71 % 0 mm
12:46 24.3 °C 18.7 °C 1017.5 hPa South 6.4 km/h 20.9 km/h 71 % 0 mm
12:51 24.4 °C 18.8 °C 1017.5 hPa SE 9.7 km/h 22.5 km/h 71 % 0 mm
12:56 24.6 °C 18.8 °C 1017.5 hPa WSW 17.7 km/h 25.7 km/h 70 % 0 mm
13:01 24.9 °C 18.8 °C 1017.5 hPa South 9.7 km/h 29 km/h 69 % 0 mm
13:06 25 °C 18.7 °C 1017.5 hPa SSW 9.7 km/h 30.6 km/h 68 % 0 mm
13:11 25.3 °C 19 °C 1017.2 hPa SSW 19.3 km/h 30.6 km/h 68 % 0 mm
13:16 25.4 °C 19.1 °C 1017.2 hPa SSE 11.3 km/h 30.6 km/h 68 % 0 mm
13:21 25.6 °C 19.3 °C 1017.2 hPa South 9.7 km/h 27.4 km/h 68 % 0 mm
13:26 25.4 °C 18.3 °C 1016.8 hPa South 40.2 km/h 40.2 km/h 65 % 0 mm
13:31 25.2 °C 18.6 °C 1016.8 hPa SSW 6.4 km/h 40.2 km/h 67 % 0 mm
13:36 25 °C 18.4 °C 1016.5 hPa SW 19.3 km/h 40.2 km/h 67 % 0 mm
13:41 25.1 °C 18.3 °C 1016.5 hPa South 8 km/h 40.2 km/h 66 % 0 mm
13:46 25.2 °C 18.4 °C 1016.5 hPa SSE 16.1 km/h 33.8 km/h 66 % 0 mm
13:51 25.7 °C 18.6 °C 1016.5 hPa South 17.7 km/h 33.8 km/h 65 % 0 mm
13:56 25.5 °C 18.4 °C 1016.1 hPa SE 14.5 km/h 32.2 km/h 65 % 0 mm
14:01 25.2 °C 18.4 °C 1016.1 hPa SSW 32.2 km/h 32.2 km/h 66 % 0 mm
14:06 25.1 °C 18.3 °C 1016.1 hPa SSW 14.5 km/h 35.4 km/h 66 % 0 mm
14:11 25.1 °C 18.5 °C 1016.1 hPa SSW 6.4 km/h 35.4 km/h 67 % 0 mm
14:16 25.2 °C 18.6 °C 1016.1 hPa SSW 6.4 km/h 35.4 km/h 67 % 0 mm
14:21 25.2 °C 18.6 °C 1016.1 hPa South 14.5 km/h 33.8 km/h 67 % 0 mm
14:26 25.2 °C 18.6 °C 1016.1 hPa SSW 16.1 km/h 29 km/h 67 % 0 mm
14:31 25.1 °C 18.8 °C 1015.8 hPa South 6.4 km/h 30.6 km/h 68 % 0 mm
14:36 25.2 °C 18.9 °C 1015.8 hPa South 4.8 km/h 30.6 km/h 68 % 0 mm
14:41 25.2 °C 18.9 °C 1016.1 hPa SSW 6.4 km/h 30.6 km/h 68 % 0 mm
14:47 25.1 °C 18.3 °C 1016.1 hPa SSW 20.9 km/h 25.7 km/h 66 % 0 mm
14:52 24.9 °C 18.3 °C 1016.1 hPa SSW 17.7 km/h 33.8 km/h 67 % 0 mm
14:57 24.9 °C 18.3 °C 1016.1 hPa SSW 19.3 km/h 33.8 km/h 67 % 0 mm
15:02 24.8 °C 18.3 °C 1016.1 hPa South 16.1 km/h 33.8 km/h 67 % 0 mm
15:07 24.8 °C 18.3 °C 1016.1 hPa SSE 9.7 km/h 33.8 km/h 67 % 0 mm
15:12 24.8 °C 18.5 °C 1016.1 hPa SW 19.3 km/h 33.8 km/h 68 % 0 mm
15:17 24.8 °C 18.3 °C 1016.1 hPa South 19.3 km/h 30.6 km/h 67 % 0 mm
15:22 24.8 °C 18.5 °C 1016.1 hPa SE 19.3 km/h 33.8 km/h 68 % 0 mm
15:27 24.8 °C 18.3 °C 1016.1 hPa South 14.5 km/h 33.8 km/h 67 % 0 mm
15:32 24.7 °C 18.4 °C 1015.8 hPa SW 11.3 km/h 33.8 km/h 68 % 0 mm
15:37 24.8 °C 18.5 °C 1015.8 hPa SW 22.5 km/h 30.6 km/h 68 % 0 mm
15:42 24.8 °C 18.5 °C 1016.1 hPa SSW 8 km/h 27.4 km/h 68 % 0 mm
15:47 24.9 °C 18.6 °C 1016.1 hPa SSW 6.4 km/h 25.7 km/h 68 % 0 mm
15:52 25 °C 18.7 °C 1016.1 hPa SSE 11.3 km/h 25.7 km/h 68 % 0 mm
15:57 24.8 °C 18.7 °C 1016.5 hPa SE 11.3 km/h 19.3 km/h 69 % 0 mm
16:02 24.6 °C 18.8 °C 1016.1 hPa SW 6.4 km/h 22.5 km/h 70 % 0 mm
16:07 24.7 °C 18.9 °C 1016.1 hPa SSE 14.5 km/h 22.5 km/h 70 % 0 mm
16:12 24.8 °C 18.7 °C 1016.1 hPa SSW 9.7 km/h 22.5 km/h 69 % 0 mm
16:17 24.7 °C 18.6 °C 1016.1 hPa SSE 9.7 km/h 20.9 km/h 69 % 0 mm
16:22 24.4 °C 18.6 °C 1016.5 hPa SW 6.4 km/h 24.1 km/h 70 % 0 mm
16:27 24.2 °C 18.6 °C 1016.5 hPa South 8 km/h 24.1 km/h 71 % 0 mm
16:32 24.1 °C 18.5 °C 1016.5 hPa SE 6.4 km/h 24.1 km/h 71 % 0 mm
16:37 24.1 °C 18.7 °C 1016.5 hPa SSW 6.4 km/h 24.1 km/h 72 % 0 mm
16:42 23.9 °C 18.5 °C 1016.5 hPa SSW 14.5 km/h 20.9 km/h 72 % 0 mm
16:47 23.8 °C 18.4 °C 1016.5 hPa SW 11.3 km/h 17.7 km/h 72 % 0 mm
16:52 23.7 °C 18.6 °C 1016.5 hPa South 11.3 km/h 24.1 km/h 73 % 0 mm
16:57 23.7 °C 18.6 °C 1016.5 hPa South 11.3 km/h 24.1 km/h 73 % 0 mm
17:02 23.6 °C 18.7 °C 1016.8 hPa SSE 9.7 km/h 24.1 km/h 74 % 0 mm
17:07 23.6 °C 18.7 °C 1016.5 hPa South 9.7 km/h 22.5 km/h 74 % 0 mm
17:12 23.5 °C 18.6 °C 1016.5 hPa South 6.4 km/h 22.5 km/h 74 % 0 mm
17:17 23.4 °C 18.5 °C 1016.8 hPa SSE 3.2 km/h 14.5 km/h 74 % 0 mm
17:22 23.3 °C 18.6 °C 1016.8 hPa SSE 3.2 km/h 14.5 km/h 75 % 0 mm
17:27 23.3 °C 18.6 °C 1016.8 hPa South 8 km/h 12.9 km/h 75 % 0 mm
17:31 23.2 °C 18.5 °C 1016.8 hPa South 8 km/h 12.9 km/h 75 % 0 mm
17:37 23.1 °C 18.6 °C 1016.8 hPa SE 9.7 km/h 14.5 km/h 76 % 0 mm
17:42 23 °C 18.5 °C 1016.8 hPa SSE 11.3 km/h 14.5 km/h 76 % 0 mm
17:47 22.9 °C 18.7 °C 1016.8 hPa South 9.7 km/h 14.5 km/h 77 % 0 mm
17:52 22.9 °C 18.7 °C 1016.5 hPa South 9.7 km/h 16.1 km/h 77 % 0 mm
17:57 22.7 °C 18.7 °C 1016.5 hPa SSE 8 km/h 16.1 km/h 78 % 0 mm
18:02 22.6 °C 18.6 °C 1016.5 hPa SSW 8 km/h 16.1 km/h 78 % 0 mm
18:07 22.6 °C 18.8 °C 1016.1 hPa SSE 8 km/h 17.7 km/h 79 % 0 mm
18:12 22.5 °C 18.7 °C 1016.5 hPa SSE 6.4 km/h 17.7 km/h 79 % 0 mm
18:17 22.4 °C 18.8 °C 1016.5 hPa South 9.7 km/h 17.7 km/h 80 % 0 mm
18:22 22.3 °C 18.7 °C 1016.5 hPa SSW 6.4 km/h 16.1 km/h 80 % 0 mm
18:27 22.3 °C 18.7 °C 1016.5 hPa SSE 4.8 km/h 17.7 km/h 80 % 0 mm
18:32 22.2 °C 18.6 °C 1016.5 hPa SSE 4.8 km/h 17.7 km/h 80 % 0 mm
18:37 22.2 °C 18.8 °C 1016.5 hPa SSW 8 km/h 17.7 km/h 81 % 0 mm
18:42 22.2 °C 18.8 °C 1016.5 hPa SE 3.2 km/h 17.7 km/h 81 % 0 mm
18:47 22.1 °C 18.7 °C 1016.5 hPa SE 8 km/h 17.7 km/h 81 % 0 mm
18:52 22.1 °C 18.7 °C 1016.5 hPa SSE 9.7 km/h 17.7 km/h 81 % 0 mm
18:58 22.1 °C 18.7 °C 1016.5 hPa South 17.7 km/h 17.7 km/h 81 % 0 mm
19:03 22.1 °C 18.9 °C 1016.5 hPa South 4.8 km/h 20.9 km/h 82 % 0 mm
19:08 22.1 °C 18.9 °C 1016.5 hPa SSW 8 km/h 20.9 km/h 82 % 0 mm
19:13 22 °C 18.8 °C 1016.8 hPa ESE 9.7 km/h 20.9 km/h 82 % 0 mm
19:18 21.9 °C 18.7 °C 1016.8 hPa SSW 8 km/h 20.9 km/h 82 % 0 mm
19:23 21.8 °C 18.6 °C 1016.8 hPa SE 1.6 km/h 20.9 km/h 82 % 0 mm
19:28 21.7 °C 18.7 °C 1016.8 hPa SSE 4.8 km/h 14.5 km/h 83 % 0 mm
19:33 21.6 °C 18.6 °C 1016.8 hPa South 3.2 km/h 12.9 km/h 83 % 0 mm
19:38 21.5 °C 18.7 °C 1016.8 hPa ESE 11.3 km/h 11.3 km/h 84 % 0 mm
19:43 21.4 °C 18.6 °C 1017.2 hPa South 6.4 km/h 11.3 km/h 84 % 0 mm
19:48 21.3 °C 18.7 °C 1017.2 hPa SSW 4.8 km/h 16.1 km/h 85 % 0 mm
19:53 21.3 °C 18.7 °C 1017.2 hPa SSE 1.6 km/h 16.1 km/h 85 % 0 mm
19:58 21.2 °C 18.6 °C 1017.5 hPa South 1.6 km/h 16.1 km/h 85 % 0 mm
20:03 21.2 °C 18.8 °C 1017.5 hPa SSE 1.6 km/h 9.7 km/h 86 % 0 mm
20:08 21.2 °C 18.8 °C 1017.5 hPa ESE 1.6 km/h 4.8 km/h 86 % 0 mm
20:13 21.1 °C 18.7 °C 1017.8 hPa South 3.2 km/h 4.8 km/h 86 % 0 mm
20:18 20.9 °C 18.5 °C 1017.8 hPa SE 1.6 km/h 4.8 km/h 86 % 0 mm
20:23 20.9 °C 18.7 °C 1017.8 hPa SE 3.2 km/h 4.8 km/h 87 % 0 mm
20:28 20.8 °C 18.6 °C 1017.8 hPa South 1.6 km/h 4.8 km/h 87 % 0 mm
20:33 20.7 °C 18.6 °C 1017.8 hPa South 1.6 km/h 4.8 km/h 88 % 0 mm
20:38 20.6 °C 18.5 °C 1017.8 hPa SE 1.6 km/h 6.4 km/h 88 % 0 mm
20:43 20.6 °C 18.7 °C 1017.8 hPa SE 1.6 km/h 6.4 km/h 89 % 0 mm
20:48 20.5 °C 18.6 °C 1017.8 hPa SSE 3.2 km/h 6.4 km/h 89 % 0 mm
20:53 20.4 °C 18.5 °C 1017.8 hPa SSE 1.6 km/h 4.8 km/h 89 % 0 mm
20:58 20.5 °C 18.8 °C 1017.8 hPa SSE 3.2 km/h 6.4 km/h 90 % 0 mm
20:59 20.6 °C 18.9 °C 1017.8 hPa SE 3.2 km/h 6.4 km/h 90 % 0 mm
21:04 20.6 °C 18.9 °C 1017.8 hPa SE 4.8 km/h 6.4 km/h 90 % 0 mm
21:09 20.6 °C 18.9 °C 1017.8 hPa SE 3.2 km/h 6.4 km/h 90 % 0 mm
21:14 20.6 °C 18.9 °C 1017.8 hPa SSW 4.8 km/h 6.4 km/h 90 % 0 mm
21:19 20.5 °C 18.8 °C 1017.8 hPa SE 3.2 km/h 8 km/h 90 % 0 mm
21:24 20.4 °C 18.7 °C 1017.8 hPa South 4.8 km/h 8 km/h 90 % 0 mm
21:29 20.4 °C 18.7 °C 1017.5 hPa SE 4.8 km/h 8 km/h 90 % 0 mm
21:34 20.3 °C 18.8 °C 1017.5 hPa SE 8 km/h 8 km/h 91 % 0 mm
21:39 20.3 °C 18.8 °C 1017.5 hPa South 1.6 km/h 11.3 km/h 91 % 0 mm
21:44 20.3 °C 18.8 °C 1017.5 hPa SSE 6.4 km/h 11.3 km/h 91 % 0 mm
21:49 20.3 °C 18.8 °C 1017.5 hPa SSE 6.4 km/h 11.3 km/h 91 % 0 mm
21:54 20.3 °C 18.8 °C 1017.8 hPa South 3.2 km/h 11.3 km/h 91 % 0 mm
21:59 20.3 °C 18.8 °C 1017.8 hPa SSW 6.4 km/h 12.9 km/h 91 % 0 mm
22:05 20.2 °C 18.7 °C 1017.8 hPa SSW 6.4 km/h 12.9 km/h 91 % 0 mm
22:10 20.3 °C 19 °C 1017.8 hPa South 9.7 km/h 12.9 km/h 92 % 0 mm
22:15 20.3 °C 19 °C 1017.8 hPa SSE 8 km/h 14.5 km/h 92 % 0 mm
22:20 20.3 °C 18.8 °C 1017.8 hPa South 8 km/h 14.5 km/h 91 % 0 mm
22:25 20.2 °C 18.7 °C 1017.8 hPa South 4.8 km/h 14.5 km/h 91 % 0 mm
22:30 20.2 °C 18.9 °C 1017.8 hPa South 6.4 km/h 12.9 km/h 92 % 0 mm
22:35 20.2 °C 18.9 °C 1017.8 hPa South 6.4 km/h 11.3 km/h 92 % 0 mm
22:40 20.3 °C 19 °C 1017.8 hPa SSW 8 km/h 16.1 km/h 92 % 0 mm
22:45 20.3 °C 18.8 °C 1017.8 hPa SW 6.4 km/h 16.1 km/h 91 % 0 mm
22:50 20.4 °C 18.9 °C 1017.8 hPa SE 9.7 km/h 16.1 km/h 91 % 0 mm
22:55 20.4 °C 18.9 °C 1017.8 hPa SSE 9.7 km/h 16.1 km/h 91 % 0 mm
23:00 20.4 °C 18.9 °C 1017.8 hPa SSW 8 km/h 19.3 km/h 91 % 0 mm
23:05 20.4 °C 18.9 °C 1017.8 hPa SE 11.3 km/h 19.3 km/h 91 % 0 mm
23:10 20.4 °C 18.9 °C 1017.8 hPa South 4.8 km/h 19.3 km/h 91 % 0 mm
23:15 20.3 °C 18.8 °C 1017.8 hPa South 6.4 km/h 19.3 km/h 91 % 0 mm
23:20 20.3 °C 18.8 °C 1017.8 hPa SSW 6.4 km/h 17.7 km/h 91 % 0 mm
23:25 20.2 °C 18.9 °C 1017.8 hPa SE 8 km/h 20.9 km/h 92 % 0 mm
23:30 20.2 °C 18.7 °C 1017.8 hPa South 8 km/h 20.9 km/h 91 % 0 mm
23:35 20.1 °C 18.8 °C 1017.8 hPa South 4.8 km/h 20.9 km/h 92 % 0 mm
23:40 20.1 °C 18.8 °C 1017.8 hPa SE 9.7 km/h 20.9 km/h 92 % 0 mm
23:45 20 °C 18.7 °C 1017.5 hPa South 8 km/h 16.1 km/h 92 % 0 mm
23:50 19.9 °C 18.6 °C 1017.5 hPa South 8 km/h 16.1 km/h 92 % 0 mm
23:55 19.9 °C 18.6 °C 1017.5 hPa SE 6.4 km/h 16.1 km/h 92 % 0 mm
Spring, Texas: Villages of Bridgestone
Compliments of Weather Underground - 2.75 mb

Script developed by  Jim McMurry - jmcmurry@mwt.net Adapted for the template by  Wim van der Kuil - Leuven-Template.eu

You find our weather info also at:

UK Metoffice

WeatherCloud

Weather Underground

Mid-South Weather Network

AWEKAS

Citizen Weather Observer Program (CWOP)

HAMweather, WeatherForYou, PWS Weather

Equipment we use:

Weather-station
Davis Vantage Vue

Weather-program
Meteohub

Weather-server
Debian 7.9 x86 (Guest)

Provider
DreamHost

Davis Vantage Vue

Meteohub

Debian 7.9 x86 (Guest)

DreamHost